Time;durP1;ratioP1;P1;durP2;ratioP2;P2;SDS_P1;SDS_P2;PMS_P1;PMS_P2;Temp;Humidity;BMP_temperature;BMP_pressure;BME280_temperature;BME280_humidity;BME280_pressure;Samples;Min_cycle;Max_cycle;Signal;HPM_P1;HPM_P2
2022/07/29 00:01:40;;;;;;;7.70;7.00;;;19.60;99.90;;;;;;5065419;28;20447;-71
2022/07/29 00:04:07;;;;;;;9.30;8.30;;;19.60;99.90;;;;;;5066794;28;21068;-69
2022/07/29 00:06:33;;;;;;;8.80;8.00;;;19.50;99.90;;;;;;5066373;28;20455;-70
2022/07/29 00:09:02;;;;;;;8.97;8.20;;;19.50;99.90;;;;;;5060767;28;20812;-70
2022/07/29 00:11:29;;;;;;;8.50;7.70;;;19.40;99.90;;;;;;5060771;28;20435;-68
2022/07/29 00:13:55;;;;;;;8.60;7.83;;;19.40;99.90;;;;;;5060243;28;20446;-70
2022/07/29 00:16:22;;;;;;;8.00;7.20;;;19.20;99.90;;;;;;5061939;28;20471;-69
2022/07/29 00:18:49;;;;;;;9.63;8.63;;;19.10;99.90;;;;;;5067307;28;20493;-70
2022/07/29 00:21:16;;;;;;;9.23;8.33;;;19.10;99.90;;;;;;5061795;28;20438;-72
2022/07/29 00:23:43;;;;;;;9.27;8.47;;;19.00;99.90;;;;;;5065910;28;20844;-70
2022/07/29 00:26:11;;;;;;;9.10;8.20;;;19.00;99.90;;;;;;5067112;28;20463;-70
2022/07/29 00:28:38;;;;;;;8.40;7.60;;;19.00;99.90;;;;;;5067222;28;20470;-70
2022/07/29 00:31:05;;;;;;;9.50;8.60;;;18.90;99.90;;;;;;5066490;28;20470;-71
2022/07/29 00:33:32;;;;;;;8.57;7.87;;;18.80;99.90;;;;;;5067990;28;20438;-70
2022/07/29 00:35:57;;;;;;;8.70;7.90;;;18.80;99.90;;;;;;5066672;28;20481;-70
2022/07/29 00:38:24;;;;;;;9.43;8.63;;;18.80;99.90;;;;;;5067907;28;20435;-71
2022/07/29 00:40:51;;;;;;;9.40;8.50;;;18.60;99.90;;;;;;5066459;28;20253;-70
2022/07/29 00:43:19;;;;;;;11.40;8.70;;;18.50;99.90;;;;;;5067572;28;20479;-70
2022/07/29 00:45:47;;;;;;;9.07;8.20;;;18.50;99.90;;;;;;5066955;28;20478;-70
2022/07/29 00:48:14;;;;;;;9.57;8.77;;;18.50;99.90;;;;;;5067638;28;20444;-70
2022/07/29 00:50:40;;;;;;;9.87;9.00;;;18.50;99.90;;;;;;5066626;28;20447;-70
2022/07/29 00:53:08;;;;;;;10.17;9.17;;;18.50;99.90;;;;;;5067468;28;20439;-71
2022/07/29 00:55:36;;;;;;;10.13;9.13;;;18.40;99.90;;;;;;5068641;28;20471;-73
2022/07/29 00:58:02;;;;;;;11.80;9.03;;;18.40;99.90;;;;;;5068764;28;20449;-69
2022/07/29 01:00:31;;;;;;;9.80;8.90;;;18.30;99.90;;;;;;5070803;28;20842;-71
2022/07/29 01:02:58;;;;;;;10.40;9.30;;;18.30;99.90;;;;;;5070949;28;20477;-70
2022/07/29 01:05:28;;;;;;;9.20;8.40;;;18.30;99.90;;;;;;5066491;28;20460;-71
2022/07/29 01:07:57;;;;;;;10.67;9.57;;;18.20;99.90;;;;;;5050950;28;21129;-71
2022/07/29 01:10:25;;;;;;;9.83;8.93;;;18.20;99.90;;;;;;5051285;28;20481;-70
2022/07/29 01:12:54;;;;;;;10.20;9.17;;;18.20;99.90;;;;;;5052295;28;20432;-72
2022/07/29 01:15:21;;;;;;;10.23;9.23;;;18.20;99.90;;;;;;5052383;28;20941;-70
2022/07/29 01:17:58;;;;;;;11.77;9.17;;;18.20;99.90;;;;;;5053040;28;20446;-71
2022/07/29 01:20:32;;;;;;;10.30;9.40;;;18.20;99.90;;;;;;5051865;28;20444;-71
2022/07/29 01:23:37;;;;;;;9.77;8.93;;;18.30;99.90;;;;;;5052455;28;20486;-71
2022/07/29 01:26:43;;;;;;;9.60;8.80;;;18.20;99.90;;;;;;5052199;28;20447;-73
2022/07/29 01:29:17;;;;;;;11.70;10.23;;;18.30;99.90;;;;;;5052236;28;21012;-70
2022/07/29 01:31:49;;;;;;;9.33;8.50;;;18.30;99.90;;;;;;5051542;28;20450;-72
2022/07/29 01:34:22;;;;;;;9.50;8.60;;;18.30;99.90;;;;;;5052184;28;20444;-72
2022/07/29 01:36:55;;;;;;;10.87;9.87;;;18.30;99.90;;;;;;5052134;28;20464;-72
2022/07/29 01:39:28;;;;;;;10.40;9.23;;;18.30;99.90;;;;;;5052206;28;20432;-72
2022/07/29 01:42:00;;;;;;;9.33;8.53;;;18.30;99.90;;;;;;5050994;28;20446;-72
2022/07/29 01:44:35;;;;;;;11.50;10.47;;;18.30;99.90;;;;;;5051559;28;20486;-72
2022/07/29 01:47:06;;;;;;;11.37;10.37;;;18.20;99.90;;;;;;5051827;28;20538;-70
2022/07/29 01:49:37;;;;;;;10.17;9.10;;;18.20;99.90;;;;;;5052101;28;20444;-71
2022/07/29 01:52:08;;;;;;;10.17;9.17;;;18.10;99.90;;;;;;5050941;28;20443;-70
2022/07/29 01:54:42;;;;;;;11.23;10.30;;;18.10;99.90;;;;;;5051789;28;21475;-72
2022/07/29 01:57:11;;;;;;;9.53;8.80;;;18.10;99.90;;;;;;5051571;28;21203;-71
2022/07/29 01:59:41;;;;;;;11.40;10.40;;;18.10;99.90;;;;;;5051818;28;20439;-70
2022/07/29 02:02:10;;;;;;;10.07;9.17;;;18.10;99.90;;;;;;5050758;28;20894;-72
2022/07/29 02:04:40;;;;;;;11.23;9.53;;;18.00;99.90;;;;;;5051136;28;20479;-72
2022/07/29 02:07:10;;;;;;;10.53;9.50;;;18.00;99.90;;;;;;5051294;28;20464;-71
2022/07/29 02:09:40;;;;;;;11.57;10.40;;;17.90;99.90;;;;;;5051083;28;20436;-70
2022/07/29 02:12:08;;;;;;;10.83;9.93;;;17.90;99.90;;;;;;5050724;28;20440;-70
2022/07/29 02:14:40;;;;;;;11.10;10.20;;;17.80;99.90;;;;;;5051330;28;20447;-73
2022/07/29 02:17:07;;;;;;;10.20;9.40;;;17.80;99.90;;;;;;5051142;28;20452;-70
2022/07/29 02:19:37;;;;;;;11.07;9.97;;;17.80;99.90;;;;;;5051757;28;20447;-71
2022/07/29 02:22:06;;;;;;;12.50;10.60;;;17.70;99.90;;;;;;5050806;28;20440;-72
2022/07/29 02:24:36;;;;;;;12.20;11.20;;;17.70;99.90;;;;;;5051053;28;20506;-71
2022/07/29 02:27:04;;;;;;;12.77;11.63;;;17.60;99.90;;;;;;5051274;28;20464;-70
2022/07/29 02:29:33;;;;;;;11.93;10.73;;;17.60;99.90;;;;;;5051048;28;20436;-70
2022/07/29 02:32:03;;;;;;;11.60;10.60;;;17.50;99.90;;;;;;5050233;28;20443;-73
2022/07/29 02:34:31;;;;;;;12.20;10.90;;;17.50;99.90;;;;;;5050557;28;20952;-72
2022/07/29 02:36:57;;;;;;;11.37;10.47;;;17.50;99.90;;;;;;5050993;28;20460;-71
2022/07/29 02:39:26;;;;;;;12.93;11.70;;;17.50;99.90;;;;;;5050974;28;20436;-71
2022/07/29 02:41:59;;;;;;;14.37;12.90;;;17.50;99.90;;;;;;5050105;28;20815;-73
2022/07/29 02:44:26;;;;;;;12.90;11.80;;;17.50;99.90;;;;;;5050218;28;20491;-70
2022/07/29 02:46:59;;;;;;;12.40;11.40;;;17.50;99.90;;;;;;5051108;28;20464;-70
2022/07/29 02:49:36;;;;;;;11.60;10.40;;;17.50;99.90;;;;;;5050833;28;20964;-71
2022/07/29 02:52:05;;;;;;;11.67;10.63;;;17.50;99.90;;;;;;5050284;28;20435;-71
2022/07/29 02:54:38;;;;;;;12.43;11.00;;;17.40;99.90;;;;;;5050378;28;20514;-72
2022/07/29 02:57:10;;;;;;;11.77;10.57;;;17.40;99.90;;;;;;5050881;28;20460;-70
2022/07/29 02:59:39;;;;;;;12.27;11.00;;;17.40;99.90;;;;;;5050573;28;20432;-71
2022/07/29 03:02:07;;;;;;;12.30;11.30;;;17.30;99.90;;;;;;5050408;28;20458;-70
2022/07/29 03:04:36;;;;;;;12.43;11.33;;;17.30;99.90;;;;;;5050339;28;21018;-70
2022/07/29 03:07:04;;;;;;;12.80;11.70;;;17.20;99.90;;;;;;5050846;28;20482;-71
2022/07/29 03:09:31;;;;;;;11.93;10.83;;;17.20;99.90;;;;;;5051230;28;20451;-71
2022/07/29 03:11:58;;;;;;;14.20;12.80;;;17.20;99.90;;;;;;5050171;28;20446;-71
2022/07/29 03:14:26;;;;;;;15.20;13.00;;;17.10;99.90;;;;;;5050749;28;20432;-72
2022/07/29 03:16:53;;;;;;;13.07;11.83;;;17.00;99.90;;;;;;5050645;28;21000;-71
2022/07/29 03:19:21;;;;;;;12.33;11.23;;;17.10;99.90;;;;;;5051154;28;20448;-71
2022/07/29 03:21:49;;;;;;;13.50;12.23;;;17.00;99.90;;;;;;5050075;28;20442;-71
2022/07/29 03:24:29;;;;;;;13.53;12.33;;;17.10;99.90;;;;;;5051704;28;20479;-70
2022/07/29 03:26:57;;;;;;;12.57;11.20;;;17.10;99.90;;;;;;5052196;28;20463;-70
2022/07/29 03:29:25;;;;;;;12.53;11.47;;;17.10;99.90;;;;;;5051562;28;20455;-70
2022/07/29 03:31:52;;;;;;;13.30;11.87;;;17.00;99.90;;;;;;5059554;28;20474;-71
2022/07/29 03:34:19;;;;;;;12.23;11.03;;;17.10;99.90;;;;;;5069924;28;20432;-71
2022/07/29 03:36:46;;;;;;;12.80;11.70;;;17.10;99.90;;;;;;5066346;28;20471;-71
2022/07/29 03:39:21;;;;;;;11.60;10.60;;;17.20;99.90;;;;;;5070114;28;20796;-70
2022/07/29 03:41:50;;;;;;;12.30;11.20;;;17.30;99.90;;;;;;5068990;28;20521;-72
2022/07/29 03:44:18;;;;;;;11.53;10.53;;;17.30;99.90;;;;;;5069567;28;20479;-70
2022/07/29 03:46:46;;;;;;;13.47;11.80;;;17.40;99.90;;;;;;5067382;28;20467;-70
2022/07/29 03:49:15;;;;;;;12.73;11.43;;;17.40;99.90;;;;;;5064241;28;20442;-70
2022/07/29 03:51:42;;;;;;;14.20;12.80;;;17.40;99.90;;;;;;5049324;28;20447;-72
2022/07/29 03:54:09;;;;;;;13.07;11.87;;;17.30;99.90;;;;;;5049985;28;20432;-70
2022/07/29 03:56:41;;;;;;;12.90;11.63;;;17.30;99.90;;;;;;5049694;28;20985;-72
2022/07/29 03:59:08;;;;;;;12.40;11.30;;;17.30;99.90;;;;;;5050467;28;20444;-71
2022/07/29 04:01:36;;;;;;;12.50;11.40;;;17.30;99.90;;;;;;5054994;28;20452;-71
2022/07/29 04:04:04;;;;;;;11.73;10.73;;;17.40;99.90;;;;;;5068089;28;20471;-71
2022/07/29 04:06:39;;;;;;;11.40;10.47;;;17.50;99.90;;;;;;5058965;28;20550;-70
2022/07/29 04:09:06;;;;;;;13.97;12.47;;;17.50;99.90;;;;;;5070247;28;20814;-70
2022/07/29 04:11:33;;;;;;;11.63;10.63;;;17.40;99.90;;;;;;5067655;28;20443;-74
2022/07/29 04:14:01;;;;;;;11.30;10.27;;;17.30;99.90;;;;;;5067570;28;20442;-69
2022/07/29 04:16:28;;;;;;;12.27;11.20;;;17.40;99.90;;;;;;5065428;28;20463;-71
2022/07/29 04:18:55;;;;;;;11.90;10.90;;;17.50;99.90;;;;;;5067986;28;20474;-71
2022/07/29 04:21:22;;;;;;;12.77;11.57;;;17.50;99.90;;;;;;5065698;28;20435;-69
2022/07/29 04:23:49;;;;;;;11.30;10.30;;;17.40;99.90;;;;;;5069422;28;20434;-70
2022/07/29 04:26:16;;;;;;;12.47;11.37;;;17.30;99.90;;;;;;5069185;28;20458;-71
2022/07/29 04:28:43;;;;;;;14.27;12.80;;;17.40;99.90;;;;;;5069423;28;20442;-73
2022/07/29 04:31:12;;;;;;;12.20;11.20;;;17.40;99.90;;;;;;5068485;28;20439;-70
2022/07/29 04:33:39;;;;;;;11.97;10.87;;;17.40;99.90;;;;;;5071857;28;20435;-70
2022/07/29 04:36:06;;;;;;;13.23;11.50;;;17.40;99.90;;;;;;5072824;28;20463;-71
2022/07/29 04:38:33;;;;;;;11.87;10.87;;;17.40;99.90;;;;;;5073305;28;20438;-72
2022/07/29 04:41:00;;;;;;;12.43;11.23;;;17.40;99.90;;;;;;5072210;28;20461;-70
2022/07/29 04:43:27;;;;;;;11.50;10.43;;;17.50;99.90;;;;;;5073195;28;20445;-70
2022/07/29 04:45:54;;;;;;;12.90;11.33;;;17.60;99.90;;;;;;5070161;28;20479;-70
2022/07/29 04:48:22;;;;;;;10.90;10.00;;;17.70;99.90;;;;;;5066783;28;20479;-71
2022/07/29 04:50:48;;;;;;;12.83;11.53;;;17.70;99.90;;;;;;5069249;28;20435;-70
2022/07/29 04:53:15;;;;;;;12.33;11.23;;;17.80;99.90;;;;;;5073081;28;20435;-70
2022/07/29 04:55:42;;;;;;;12.50;11.27;;;17.90;99.90;;;;;;5072441;28;20466;-73
2022/07/29 04:58:09;;;;;;;12.77;11.67;;;18.00;99.90;;;;;;5072945;28;20470;-71
2022/07/29 05:00:36;;;;;;;12.70;11.47;;;18.00;99.90;;;;;;5071974;28;20443;-72
2022/07/29 05:03:03;;;;;;;13.73;12.33;;;18.00;99.90;;;;;;5072695;28;20446;-71
2022/07/29 05:05:31;;;;;;;13.47;12.23;;;18.00;99.90;;;;;;5072420;28;20482;-70
2022/07/29 05:07:58;;;;;;;12.90;11.63;;;18.00;99.90;;;;;;5073469;28;20446;-70
2022/07/29 05:10:25;;;;;;;13.10;12.00;;;18.00;99.90;;;;;;5072093;28;20500;-71
2022/07/29 05:12:52;;;;;;;11.40;10.37;;;18.00;99.90;;;;;;5072475;28;20530;-71
2022/07/29 05:15:19;;;;;;;11.13;10.10;;;18.10;99.90;;;;;;5072257;28;20438;-71
2022/07/29 05:17:46;;;;;;;11.30;10.30;;;18.20;99.90;;;;;;5072516;28;20513;-71
2022/07/29 05:20:13;;;;;;;10.70;9.73;;;18.30;99.90;;;;;;5071894;28;20792;-72
2022/07/29 05:22:41;;;;;;;11.60;10.57;;;18.40;99.90;;;;;;5072486;28;20438;-71
2022/07/29 05:25:09;;;;;;;12.33;11.13;;;18.50;99.90;;;;;;5072075;28;20482;-71
2022/07/29 05:27:36;;;;;;;10.03;9.13;;;18.70;99.90;;;;;;5072642;28;20439;-71
2022/07/29 05:30:04;;;;;;;10.90;9.90;;;18.70;99.90;;;;;;5071550;28;20457;-71
2022/07/29 05:32:30;;;;;;;10.50;9.70;;;18.90;99.90;;;;;;5072341;28;20451;-71
2022/07/29 05:34:57;;;;;;;10.27;9.33;;;19.10;99.90;;;;;;5071968;28;20424;-71
2022/07/29 05:37:24;;;;;;;8.57;7.87;;;19.20;99.90;;;;;;5072549;28;21015;-73
2022/07/29 05:39:52;;;;;;;9.20;7.43;;;19.40;99.90;;;;;;5071136;28;20952;-72
2022/07/29 05:42:19;;;;;;;9.17;7.90;;;19.50;99.90;;;;;;5072069;28;20446;-72
2022/07/29 05:44:47;;;;;;;8.23;7.50;;;19.60;99.90;;;;;;5070667;28;20478;-70
2022/07/29 05:47:14;;;;;;;10.43;7.63;;;19.80;99.90;;;;;;5072055;28;20481;-71
2022/07/29 05:49:41;;;;;;;8.80;8.00;;;20.00;99.90;;;;;;5071800;28;20807;-71
2022/07/29 05:52:08;;;;;;;7.87;7.13;;;20.20;99.90;;;;;;5071521;28;20481;-72
2022/07/29 05:54:35;;;;;;;8.60;7.77;;;20.30;99.90;;;;;;5072187;28;20662;-71
2022/07/29 05:57:04;;;;;;;11.50;6.90;;;20.60;99.90;;;;;;5064524;28;21003;-70
2022/07/29 05:59:31;;;;;;;7.10;6.50;;;20.70;99.90;;;;;;5069427;28;20448;-71
2022/07/29 06:01:58;;;;;;;7.50;6.73;;;20.80;99.90;;;;;;5071001;28;20435;-72
2022/07/29 06:04:24;;;;;;;6.70;6.10;;;20.90;99.90;;;;;;5071046;28;20431;-70
2022/07/29 06:06:51;;;;;;;6.90;6.33;;;21.10;99.90;;;;;;5071335;28;20455;-72
2022/07/29 06:09:18;;;;;;;6.60;6.10;;;21.30;99.90;;;;;;5071599;28;20921;-71
2022/07/29 06:11:45;;;;;;;6.43;5.73;;;21.60;99.90;;;;;;5070475;28;20431;-70
2022/07/29 06:14:13;;;;;;;6.57;6.03;;;21.80;99.90;;;;;;5071342;28;20427;-73
2022/07/29 06:16:40;;;;;;;6.10;5.33;;;22.00;99.90;;;;;;5071198;28;20545;-71
2022/07/29 06:19:07;;;;;;;5.43;4.93;;;22.20;99.90;;;;;;5071536;28;20434;-71
2022/07/29 06:21:34;;;;;;;5.30;4.83;;;22.30;99.90;;;;;;5070713;28;20431;-73
2022/07/29 06:24:01;;;;;;;5.23;4.73;;;22.40;99.90;;;;;;5071211;28;20497;-71
2022/07/29 06:26:28;;;;;;;5.30;4.50;;;22.50;99.90;;;;;;5070887;28;20569;-72
2022/07/29 06:28:55;;;;;;;5.33;4.83;;;22.60;99.90;;;;;;5071200;28;20439;-68
2022/07/29 06:31:23;;;;;;;4.40;4.00;;;22.90;99.90;;;;;;5066943;28;20454;-68
2022/07/29 06:33:50;;;;;;;6.53;4.37;;;23.10;99.90;;;;;;5070799;28;20442;-72
2022/07/29 06:36:17;;;;;;;5.37;4.47;;;23.30;99.90;;;;;;5070235;28;20465;-70
2022/07/29 06:38:43;;;;;;;6.30;4.87;;;23.50;99.90;;;;;;5070504;28;20465;-71
2022/07/29 06:41:12;;;;;;;5.17;4.30;;;23.60;99.90;;;;;;5068768;28;20451;-68
2022/07/29 06:43:41;;;;;;;5.87;4.63;;;23.80;99.90;;;;;;5065280;28;20831;-72
2022/07/29 06:46:11;;;;;;;5.17;4.60;;;23.70;99.90;;;;;;5070339;28;20482;-67
2022/07/29 06:48:40;;;;;;;3.90;3.37;;;23.90;99.90;;;;;;5067868;28;20509;-71
2022/07/29 06:51:07;;;;;;;5.47;4.30;;;24.00;99.90;;;;;;5069494;28;20937;-72
2022/07/29 06:53:34;;;;;;;5.13;4.73;;;24.10;99.90;;;;;;5070944;28;20790;-70
2022/07/29 06:56:02;;;;;;;4.20;3.80;;;24.10;99.90;;;;;;5070481;28;20462;-74
2022/07/29 06:58:30;;;;;;;7.50;4.40;;;24.00;99.90;;;;;;5064876;28;21027;-72
2022/07/29 07:00:57;;;;;;;5.27;4.53;;;23.90;99.90;;;;;;5069646;28;20446;-70
2022/07/29 07:03:25;;;;;;;4.47;4.07;;;23.70;99.90;;;;;;5070099;28;20451;-70
2022/07/29 07:05:53;;;;;;;4.40;3.73;;;23.60;99.90;;;;;;5069691;28;20585;-73
2022/07/29 07:08:20;;;;;;;4.27;3.87;;;23.60;99.90;;;;;;5067357;28;20961;-71
2022/07/29 07:10:47;;;;;;;5.93;4.20;;;23.70;99.90;;;;;;5070356;28;20454;-70
2022/07/29 07:13:14;;;;;;;5.03;4.50;;;23.90;99.90;;;;;;5070873;28;20443;-70
2022/07/29 07:15:41;;;;;;;4.50;4.10;;;24.10;99.90;;;;;;5070239;28;20467;-68
2022/07/29 07:18:08;;;;;;;6.47;4.70;;;24.30;99.90;;;;;;5070451;28;20439;-72
2022/07/29 07:20:35;;;;;;;4.20;3.80;;;24.40;99.90;;;;;;5085490;28;20449;-69
2022/07/29 07:23:04;;;;;;;5.50;4.20;;;24.60;99.90;;;;;;5090746;28;20453;-72
2022/07/29 07:25:31;;;;;;;5.00;4.50;;;24.70;99.90;;;;;;5090328;28;20486;-70
2022/07/29 07:27:58;;;;;;;5.23;3.90;;;24.70;99.90;;;;;;5081376;28;20451;-72
2022/07/29 07:30:26;;;;;;;4.70;4.17;;;24.60;99.90;;;;;;5061883;28;20469;-72
2022/07/29 07:32:52;;;;;;;4.73;4.07;;;24.50;99.90;;;;;;5066062;28;20443;-69
2022/07/29 07:35:19;;;;;;;5.03;4.63;;;24.50;99.90;;;;;;5069271;28;20427;-68
2022/07/29 07:37:46;;;;;;;4.73;4.10;;;24.70;99.90;;;;;;5063435;28;20467;-66
2022/07/29 07:40:15;;;;;;;6.13;4.60;;;24.90;99.90;;;;;;5065113;28;20435;-70
2022/07/29 07:42:42;;;;;;;4.70;4.20;;;24.90;99.90;;;;;;5063380;28;20444;-69
2022/07/29 07:45:10;;;;;;;4.80;4.30;;;25.00;99.90;;;;;;5067455;28;20483;-71
2022/07/29 07:47:37;;;;;;;5.20;4.00;;;25.20;99.90;;;;;;5066887;28;20946;-71
2022/07/29 07:50:05;;;;;;;5.83;4.13;;;25.30;99.90;;;;;;5068876;28;20542;-70
2022/07/29 07:52:32;;;;;;;5.43;4.70;;;25.50;99.90;;;;;;5069484;28;20440;-70
2022/07/29 07:55:00;;;;;;;5.47;4.40;;;25.50;99.90;;;;;;5056962;28;20454;-71
2022/07/29 07:57:28;;;;;;;5.40;4.40;;;25.30;99.90;;;;;;5056382;28;20474;-67
2022/07/29 07:59:55;;;;;;;4.60;4.20;;;25.70;99.90;;;;;;5057162;28;20444;-71
2022/07/29 08:02:21;;;;;;;6.05;4.38;;;26.30;99.90;;;;;;5057795;28;20796;-75
2022/07/29 08:04:48;;;;;;;7.50;4.73;;;26.80;99.90;;;;;;5059029;28;20233;-71
2022/07/29 08:07:15;;;;;;;7.00;3.90;;;26.90;99.90;;;;;;5061987;28;20505;-73
2022/07/29 08:09:42;;;;;;;5.90;4.87;;;26.90;99.90;;;;;;5065323;28;20905;-71
2022/07/29 08:12:09;;;;;;;5.60;4.63;;;26.50;99.90;;;;;;5064984;28;20452;-73
2022/07/29 08:14:37;;;;;;;5.63;5.13;;;26.10;99.90;;;;;;5068138;28;20469;-73
2022/07/29 08:17:04;;;;;;;5.27;4.37;;;26.10;99.90;;;;;;5067387;28;20458;-72
2022/07/29 08:19:31;;;;;;;4.60;4.20;;;26.00;99.90;;;;;;5064963;28;20447;-71
2022/07/29 08:21:57;;;;;;;4.93;4.53;;;26.10;99.90;;;;;;5066719;28;20469;-72
2022/07/29 08:27:09;;;;;;;5.00;4.50;;;26.40;99.90;;;;;;5063629;28;20472;-72
2022/07/29 08:29:37;;;;;;;7.00;4.70;;;26.30;99.90;;;;;;5065163;28;20452;-71
2022/07/29 08:32:05;;;;;;;6.17;4.73;;;25.90;99.90;;;;;;5062367;28;20830;-74
2022/07/29 08:34:32;;;;;;;5.57;4.50;;;25.70;99.90;;;;;;5063081;28;20457;-71
2022/07/29 08:36:59;;;;;;;5.47;4.93;;;25.70;99.90;;;;;;5062886;28;20996;-71
2022/07/29 08:39:26;;;;;;;5.90;5.30;;;25.80;99.90;;;;;;5062658;28;20858;-72
2022/07/29 08:41:54;;;;;;;11.47;4.93;;;25.80;99.90;;;;;;5065308;28;20458;-71
2022/07/29 08:44:22;;;;;;;4.87;4.07;;;25.90;99.90;;;;;;5063032;28;20443;-71
2022/07/29 08:46:51;;;;;;;8.53;5.27;;;25.80;99.90;;;;;;5059161;28;20491;-71
2022/07/29 08:49:18;;;;;;;5.83;4.47;;;25.80;99.90;;;;;;5059863;28;20444;-73
2022/07/29 08:51:45;;;;;;;5.73;5.00;;;25.90;99.90;;;;;;5062659;28;20454;-70
2022/07/29 08:54:17;;;;;;;9.40;5.80;;;26.00;99.90;;;;;;5070363;28;20446;-70
2022/07/29 08:56:44;;;;;;;5.60;5.10;;;25.80;99.90;;;;;;5065179;28;20524;-70
2022/07/29 08:59:13;;;;;;;6.77;5.83;;;25.80;99.90;;;;;;5066888;28;20565;-70
2022/07/29 09:01:42;;;;;;;9.37;5.43;;;25.80;99.90;;;;;;5074136;28;20953;-71
2022/07/29 09:04:13;;;;;;;7.07;5.87;;;25.90;99.90;;;;;;5070335;28;20526;-72
2022/07/29 09:06:44;;;;;;;5.80;5.23;;;25.80;99.90;;;;;;5071229;28;20551;-70
2022/07/29 09:09:11;;;;;;;5.87;5.37;;;25.90;99.90;;;;;;5074180;28;20428;-72
2022/07/29 09:11:38;;;;;;;6.13;5.47;;;25.80;99.90;;;;;;5074890;28;20500;-71
2022/07/29 09:14:05;;;;;;;7.47;5.53;;;25.60;99.90;;;;;;5075412;28;20481;-72
2022/07/29 09:16:51;;;;;;;6.47;5.03;;;25.70;99.90;;;;;;5071238;28;20467;-73
2022/07/29 09:19:24;;;;;;;5.97;5.10;;;26.00;99.90;;;;;;5070701;28;20455;-72
2022/07/29 09:22:00;;;;;;;6.97;6.07;;;26.10;99.90;;;;;;5071403;28;20459;-72
2022/07/29 09:24:38;;;;;;;6.80;5.80;;;26.30;99.90;;;;;;5068410;28;20926;-70
2022/07/29 09:27:18;;;;;;;6.63;5.10;;;26.50;99.60;;;;;;5072265;28;20482;-69
2022/07/29 09:29:45;;;;;;;7.63;5.60;;;26.50;99.90;;;;;;5069995;28;20443;-73
2022/07/29 09:32:12;;;;;;;6.50;5.57;;;26.60;99.00;;;;;;5068863;28;20432;-71
2022/07/29 09:34:40;;;;;;;5.83;5.10;;;26.70;98.50;;;;;;5066427;28;20447;-71
2022/07/29 09:37:08;;;;;;;6.30;5.70;;;26.80;98.40;;;;;;5058769;28;20562;-71
2022/07/29 09:39:36;;;;;;;9.57;6.50;;;26.80;97.90;;;;;;5068505;28;20522;-71
2022/07/29 09:42:05;;;;;;;7.43;5.47;;;26.80;97.50;;;;;;5055202;28;20453;-70
2022/07/29 09:44:44;;;;;;;10.30;5.73;;;26.80;97.60;;;;;;5057824;28;21574;-73
2022/07/29 09:47:10;;;;;;;7.17;6.47;;;26.90;97.70;;;;;;5067516;28;20482;-70
2022/07/29 09:49:54;;;;;;;5.93;5.30;;;27.10;97.60;;;;;;5066094;28;20447;-71
2022/07/29 09:52:21;;;;;;;5.80;5.30;;;27.30;97.60;;;;;;5067682;28;21050;-70
2022/07/29 09:54:48;;;;;;;7.37;6.23;;;27.50;96.70;;;;;;5072766;28;20969;-72
2022/07/29 09:57:27;;;;;;;6.63;5.30;;;27.60;96.10;;;;;;5073813;28;20536;-71
2022/07/29 09:59:58;;;;;;;6.40;5.83;;;27.70;95.80;;;;;;5064236;28;20443;-69
2022/07/29 10:02:30;;;;;;;7.00;6.03;;;28.00;95.60;;;;;;5060284;28;20443;-70
2022/07/29 10:04:59;;;;;;;6.57;5.87;;;28.50;95.00;;;;;;5066938;28;20570;-69
2022/07/29 10:07:26;;;;;;;6.90;6.20;;;28.80;94.70;;;;;;5071592;28;20498;-68
2022/07/29 10:09:55;;;;;;;9.60;5.17;;;28.90;94.00;;;;;;5064078;28;20455;-71
2022/07/29 10:12:22;;;;;;;7.67;5.70;;;29.20;93.00;;;;;;5064681;28;20479;-71
2022/07/29 10:14:50;;;;;;;6.30;5.70;;;28.70;92.70;;;;;;5068390;28;20452;-71
2022/07/29 10:17:18;;;;;;;6.73;6.03;;;28.10;94.20;;;;;;5068390;28;20486;-74
2022/07/29 10:19:45;;;;;;;6.73;6.13;;;27.90;95.60;;;;;;5068427;28;20462;-72
2022/07/29 10:22:14;;;;;;;8.87;7.20;;;27.60;95.70;;;;;;5071492;28;20447;-69
2022/07/29 10:24:41;;;;;;;6.70;6.00;;;27.40;96.40;;;;;;5059085;28;20475;-70
2022/07/29 10:27:09;;;;;;;6.93;6.23;;;27.40;96.50;;;;;;5061516;28;20522;-72
2022/07/29 10:29:36;;;;;;;6.50;5.90;;;27.20;95.80;;;;;;5071074;28;20447;-71
2022/07/29 10:32:31;;;;;;;6.80;6.20;;;27.10;96.70;;;;;;5069504;28;20447;-74
2022/07/29 10:35:21;;;;;;;8.37;6.33;;;27.10;96.80;;;;;;5069523;28;20459;-71
2022/07/29 10:38:25;;;;;;;8.30;7.13;;;27.20;97.10;;;;;;5071091;28;20447;-70
2022/07/29 10:43:47;;;;;;;8.80;6.47;;;26.80;97.20;;;;;;5066200;28;20804;-72
2022/07/29 10:46:15;;;;;;;7.43;6.70;;;26.70;97.20;;;;;;5059081;28;20478;-72
2022/07/29 10:49:10;;;;;;;8.07;7.30;;;26.50;97.80;;;;;;5061880;28;20977;-74
2022/07/29 10:51:55;;;;;;;7.70;7.03;;;26.30;97.70;;;;;;5064894;28;20542;-71
2022/07/29 10:54:47;;;;;;;9.07;6.57;;;26.00;97.90;;;;;;5056404;28;20466;-73
2022/07/29 10:57:26;;;;;;;7.30;6.57;;;25.90;98.30;;;;;;5059135;28;20487;-72
2022/07/29 11:00:28;;;;;;;8.00;7.33;;;25.80;98.70;;;;;;5062742;28;20461;-71
2022/07/29 11:02:57;;;;;;;9.80;6.40;;;25.70;98.60;;;;;;5066999;28;20431;-71
2022/07/29 11:05:26;;;;;;;8.27;6.90;;;25.60;99.00;;;;;;5066137;28;20752;-71
2022/07/29 11:08:25;;;;;;;6.40;5.80;;;25.60;99.20;;;;;;5062422;28;21089;-71
2022/07/29 11:11:09;;;;;;;7.40;6.70;;;25.70;99.80;;;;;;5057689;28;20479;-69
2022/07/29 11:14:00;;;;;;;7.87;6.93;;;25.70;99.10;;;;;;5064566;28;20960;-71
2022/07/29 11:16:47;;;;;;;7.70;7.00;;;25.50;99.90;;;;;;5062319;28;20520;-71
2022/07/29 11:19:21;;;;;;;8.40;7.30;;;24.90;99.90;;;;;;5060208;28;20462;-71
2022/07/29 11:21:49;;;;;;;8.77;8.07;;;24.20;99.90;;;;;;5059956;28;20447;-71
2022/07/29 11:24:18;;;;;;;8.53;7.80;;;23.60;99.90;;;;;;5056545;28;20498;-73
2022/07/29 11:27:06;;;;;;;8.30;7.50;;;23.10;99.90;;;;;;5057568;28;20483;-73
2022/07/29 11:29:36;;;;;;;9.53;8.50;;;22.70;99.90;;;;;;5059103;28;20820;-70
2022/07/29 11:32:11;;;;;;;9.50;8.60;;;22.30;99.90;;;;;;5054895;28;20447;-69
2022/07/29 11:34:40;;;;;;;9.60;8.53;;;22.10;99.90;;;;;;5063812;28;20446;-72
2022/07/29 11:37:18;;;;;;;12.23;10.60;;;21.80;99.90;;;;;;5069341;28;20488;-69
2022/07/29 11:39:47;;;;;;;12.17;10.90;;;21.70;99.90;;;;;;5062981;28;20452;-69
2022/07/29 11:42:53;;;;;;;11.83;10.53;;;21.80;99.90;;;;;;5063339;28;20439;-71
2022/07/29 11:45:32;;;;;;;12.27;10.80;;;21.80;99.90;;;;;;5061096;28;20820;-71
2022/07/29 11:47:59;;;;;;;12.73;11.53;;;21.90;99.90;;;;;;5069369;28;20948;-70
2022/07/29 11:50:35;;;;;;;13.10;11.80;;;22.20;99.90;;;;;;5067798;28;20452;-70
2022/07/29 11:53:04;;;;;;;13.10;12.00;;;22.40;99.90;;;;;;5066598;28;20834;-68
2022/07/29 11:55:35;;;;;;;10.23;9.30;;;22.30;99.90;;;;;;5057510;28;20554;-71
2022/07/29 11:58:02;;;;;;;10.50;9.60;;;22.10;99.90;;;;;;5060837;28;20887;-73
2022/07/29 12:00:33;;;;;;;8.23;7.40;;;22.30;99.90;;;;;;5052884;28;20807;-71
2022/07/29 12:03:02;;;;;;;8.63;7.73;;;22.70;99.90;;;;;;5055187;28;21378;-71
2022/07/29 12:05:37;;;;;;;8.07;7.27;;;23.10;99.90;;;;;;5051105;28;20481;-69
2022/07/29 12:08:09;;;;;;;8.47;7.67;;;23.20;99.90;;;;;;5055192;28;20477;-70
2022/07/29 12:10:36;;;;;;;6.73;6.07;;;23.50;99.90;;;;;;5056549;28;20443;-73
2022/07/29 12:13:03;;;;;;;7.27;6.57;;;24.20;99.90;;;;;;5051157;28;20443;-73
2022/07/29 12:15:35;;;;;;;8.20;6.50;;;24.90;99.90;;;;;;5052270;28;20467;-72
2022/07/29 12:18:12;;;;;;;5.80;5.20;;;25.60;99.90;;;;;;5047517;28;20950;-73
2022/07/29 12:20:39;;;;;;;10.00;5.43;;;26.10;99.90;;;;;;5053393;28;20531;-71
2022/07/29 12:23:11;;;;;;;9.03;4.70;;;25.80;99.90;;;;;;5054336;28;20462;-70
2022/07/29 12:25:39;;;;;;;6.43;5.10;;;25.80;99.90;;;;;;5046275;28;20475;-70
2022/07/29 12:28:09;;;;;;;5.27;4.77;;;25.70;99.90;;;;;;5054097;28;20494;-73
2022/07/29 12:30:40;;;;;;;4.50;3.27;;;26.00;99.90;;;;;;5050901;28;20448;-70
2022/07/29 12:33:20;;;;;;;6.73;4.33;;;26.40;99.90;;;;;;5055753;28;20471;-73
2022/07/29 12:35:49;;;;;;;6.00;3.60;;;26.30;99.90;;;;;;5055585;28;20466;-71
2022/07/29 12:38:16;;;;;;;5.53;3.23;;;26.10;99.90;;;;;;5050393;28;20561;-67
2022/07/29 12:40:44;;;;;;;5.30;3.67;;;25.80;99.90;;;;;;5052525;28;20451;-71
2022/07/29 12:43:15;;;;;;;5.00;4.30;;;25.10;99.90;;;;;;5056948;28;20451;-73
2022/07/29 12:45:45;;;;;;;5.23;3.60;;;24.70;99.90;;;;;;5066278;28;20463;-71
2022/07/29 12:48:13;;;;;;;4.20;3.63;;;24.30;99.90;;;;;;5060063;28;20855;-70
2022/07/29 12:50:54;;;;;;;4.50;4.00;;;24.30;99.90;;;;;;5066976;28;20454;-70
2022/07/29 12:53:21;;;;;;;4.13;3.57;;;24.20;99.90;;;;;;5072162;28;20445;-70
2022/07/29 12:55:51;;;;;;;5.90;4.20;;;24.20;99.90;;;;;;5067339;28;20537;-70
2022/07/29 12:58:29;;;;;;;4.80;3.40;;;24.40;99.90;;;;;;5061884;28;20527;-72
2022/07/29 13:01:09;;;;;;;6.80;4.00;;;24.30;99.90;;;;;;5067846;28;20443;-71